sensor_id;sensor_type;location;lat;lon;timestamp;temperature;humidity
3550;DHT22;45572;48.804;8.330;2023-10-08T00:02:24;11.50;93.00
3550;DHT22;45572;48.804;8.330;2023-10-08T00:04:53;11.50;92.80
3550;DHT22;45572;48.804;8.330;2023-10-08T00:07:21;11.50;92.80
3550;DHT22;45572;48.804;8.330;2023-10-08T00:09:51;11.40;93.20
3550;DHT22;45572;48.804;8.330;2023-10-08T00:12:20;11.20;93.20
3550;DHT22;45572;48.804;8.330;2023-10-08T00:14:48;11.20;93.60
3550;DHT22;45572;48.804;8.330;2023-10-08T00:17:20;11.30;93.80
3550;DHT22;45572;48.804;8.330;2023-10-08T00:19:48;11.40;93.50
3550;DHT22;45572;48.804;8.330;2023-10-08T00:22:19;11.40;93.40
3550;DHT22;45572;48.804;8.330;2023-10-08T00:24:48;11.50;93.00
3550;DHT22;45572;48.804;8.330;2023-10-08T00:27:25;11.50;92.80
3550;DHT22;45572;48.804;8.330;2023-10-08T00:29:53;11.40;92.80
3550;DHT22;45572;48.804;8.330;2023-10-08T00:32:23;11.40;93.00
3550;DHT22;45572;48.804;8.330;2023-10-08T00:34:51;11.40;93.10
3550;DHT22;45572;48.804;8.330;2023-10-08T00:37:19;11.50;92.90
3550;DHT22;45572;48.804;8.330;2023-10-08T00:39:50;11.50;92.70
3550;DHT22;45572;48.804;8.330;2023-10-08T00:42:18;11.60;92.40
3550;DHT22;45572;48.804;8.330;2023-10-08T00:44:48;11.60;92.20
3550;DHT22;45572;48.804;8.330;2023-10-08T00:47:18;11.60;92.20
3550;DHT22;45572;48.804;8.330;2023-10-08T00:49:51;11.60;92.10
3550;DHT22;45572;48.804;8.330;2023-10-08T00:52:31;11.70;92.10
3550;DHT22;45572;48.804;8.330;2023-10-08T00:55:08;11.70;91.60
3550;DHT22;45572;48.804;8.330;2023-10-08T00:57:41;11.80;91.30
3550;DHT22;45572;48.804;8.330;2023-10-08T01:00:16;11.80;91.30
3550;DHT22;45572;48.804;8.330;2023-10-08T01:02:49;11.90;91.70
3550;DHT22;45572;48.804;8.330;2023-10-08T01:05:27;11.80;91.50
3550;DHT22;45572;48.804;8.330;2023-10-08T01:08:11;11.90;91.70
3550;DHT22;45572;48.804;8.330;2023-10-08T01:10:41;11.90;91.50
3550;DHT22;45572;48.804;8.330;2023-10-08T01:13:13;11.90;91.60
3550;DHT22;45572;48.804;8.330;2023-10-08T01:15:47;11.80;91.70
3550;DHT22;45572;48.804;8.330;2023-10-08T01:18:17;11.80;91.50
3550;DHT22;45572;48.804;8.330;2023-10-08T01:20:51;11.80;91.40
3550;DHT22;45572;48.804;8.330;2023-10-08T01:23:21;11.80;91.60
3550;DHT22;45572;48.804;8.330;2023-10-08T01:25:53;11.80;91.90
3550;DHT22;45572;48.804;8.330;2023-10-08T01:28:28;11.80;91.40
3550;DHT22;45572;48.804;8.330;2023-10-08T01:31:00;11.90;91.20
3550;DHT22;45572;48.804;8.330;2023-10-08T01:33:30;11.90;91.30
3550;DHT22;45572;48.804;8.330;2023-10-08T01:36:04;11.90;91.20
3550;DHT22;45572;48.804;8.330;2023-10-08T01:38:36;11.90;90.90
3550;DHT22;45572;48.804;8.330;2023-10-08T01:41:04;11.90;91.00
3550;DHT22;45572;48.804;8.330;2023-10-08T01:43:37;11.80;91.00
3550;DHT22;45572;48.804;8.330;2023-10-08T01:46:05;11.70;91.30
3550;DHT22;45572;48.804;8.330;2023-10-08T01:48:38;11.70;91.60
3550;DHT22;45572;48.804;8.330;2023-10-08T01:51:06;11.60;91.70
3550;DHT22;45572;48.804;8.330;2023-10-08T01:53:39;11.60;91.60
3550;DHT22;45572;48.804;8.330;2023-10-08T01:56:07;11.70;91.10
3550;DHT22;45572;48.804;8.330;2023-10-08T01:58:37;11.70;91.50
3550;DHT22;45572;48.804;8.330;2023-10-08T02:01:05;11.70;91.40
3550;DHT22;45572;48.804;8.330;2023-10-08T02:03:38;11.60;91.40
3550;DHT22;45572;48.804;8.330;2023-10-08T02:06:08;11.60;91.70
3550;DHT22;45572;48.804;8.330;2023-10-08T02:08:36;11.60;91.60
3550;DHT22;45572;48.804;8.330;2023-10-08T02:11:06;11.60;91.50
3550;DHT22;45572;48.804;8.330;2023-10-08T02:13:35;11.60;91.70
3550;DHT22;45572;48.804;8.330;2023-10-08T02:16:03;11.60;91.50
3550;DHT22;45572;48.804;8.330;2023-10-08T02:18:31;11.60;91.70
3550;DHT22;45572;48.804;8.330;2023-10-08T02:21:00;11.50;91.70
3550;DHT22;45572;48.804;8.330;2023-10-08T02:23:29;11.60;91.60
3550;DHT22;45572;48.804;8.330;2023-10-08T02:25:58;11.60;91.60
3550;DHT22;45572;48.804;8.330;2023-10-08T02:28:27;11.60;91.50
3550;DHT22;45572;48.804;8.330;2023-10-08T02:30:55;11.60;91.60
3550;DHT22;45572;48.804;8.330;2023-10-08T02:33:25;11.50;91.80
3550;DHT22;45572;48.804;8.330;2023-10-08T02:35:53;11.50;91.80
3550;DHT22;45572;48.804;8.330;2023-10-08T02:38:23;11.60;91.40
3550;DHT22;45572;48.804;8.330;2023-10-08T02:40:51;11.60;91.40
3550;DHT22;45572;48.804;8.330;2023-10-08T02:43:23;11.60;91.40
3550;DHT22;45572;48.804;8.330;2023-10-08T02:45:52;11.70;91.40
3550;DHT22;45572;48.804;8.330;2023-10-08T02:48:22;11.70;91.20
3550;DHT22;45572;48.804;8.330;2023-10-08T02:50:50;11.70;91.10
3550;DHT22;45572;48.804;8.330;2023-10-08T02:53:20;11.60;91.00
3550;DHT22;45572;48.804;8.330;2023-10-08T02:55:50;11.60;91.40
3550;DHT22;45572;48.804;8.330;2023-10-08T02:58:18;11.60;91.30
3550;DHT22;45572;48.804;8.330;2023-10-08T03:00:47;11.60;91.30
3550;DHT22;45572;48.804;8.330;2023-10-08T03:03:18;11.70;91.20
3550;DHT22;45572;48.804;8.330;2023-10-08T03:05:48;11.70;91.30
3550;DHT22;45572;48.804;8.330;2023-10-08T03:08:18;11.70;91.10
3550;DHT22;45572;48.804;8.330;2023-10-08T03:10:48;11.70;91.50
3550;DHT22;45572;48.804;8.330;2023-10-08T03:13:17;11.80;91.30
3550;DHT22;45572;48.804;8.330;2023-10-08T03:15:46;11.80;90.90
3550;DHT22;45572;48.804;8.330;2023-10-08T03:18:26;11.90;90.70
3550;DHT22;45572;48.804;8.330;2023-10-08T03:21:03;11.90;90.70
3550;DHT22;45572;48.804;8.330;2023-10-08T03:23:32;11.90;90.70
3550;DHT22;45572;48.804;8.330;2023-10-08T03:26:02;11.90;90.70
3550;DHT22;45572;48.804;8.330;2023-10-08T03:28:38;11.90;90.60
3550;DHT22;45572;48.804;8.330;2023-10-08T03:31:08;11.90;90.40
3550;DHT22;45572;48.804;8.330;2023-10-08T03:33:47;11.80;90.80
3550;DHT22;45572;48.804;8.330;2023-10-08T03:36:18;11.90;90.60
3550;DHT22;45572;48.804;8.330;2023-10-08T03:38:49;11.90;90.70
3550;DHT22;45572;48.804;8.330;2023-10-08T03:41:18;11.90;90.70
3550;DHT22;45572;48.804;8.330;2023-10-08T03:43:54;11.90;90.80
3550;DHT22;45572;48.804;8.330;2023-10-08T03:46:29;11.90;90.50
3550;DHT22;45572;48.804;8.330;2023-10-08T03:48:58;11.80;90.80
3550;DHT22;45572;48.804;8.330;2023-10-08T03:51:31;11.80;90.90
3550;DHT22;45572;48.804;8.330;2023-10-08T03:54:06;11.80;91.10
3550;DHT22;45572;48.804;8.330;2023-10-08T03:56:43;11.70;91.30
3550;DHT22;45572;48.804;8.330;2023-10-08T03:59:13;11.70;91.20
3550;DHT22;45572;48.804;8.330;2023-10-08T04:01:47;11.70;91.10
3550;DHT22;45572;48.804;8.330;2023-10-08T04:04:22;11.70;91.20
3550;DHT22;45572;48.804;8.330;2023-10-08T04:06:57;11.70;91.50
3550;DHT22;45572;48.804;8.330;2023-10-08T04:09:46;11.80;91.30
3550;DHT22;45572;48.804;8.330;2023-10-08T04:12:14;11.80;91.30
3550;DHT22;45572;48.804;8.330;2023-10-08T04:14:45;11.80;91.20
3550;DHT22;45572;48.804;8.330;2023-10-08T04:17:14;11.80;91.00
3550;DHT22;45572;48.804;8.330;2023-10-08T04:19:50;11.90;91.20
3550;DHT22;45572;48.804;8.330;2023-10-08T04:22:18;11.90;91.10
3550;DHT22;45572;48.804;8.330;2023-10-08T04:24:46;11.80;91.10
3550;DHT22;45572;48.804;8.330;2023-10-08T04:27:16;11.80;91.20
3550;DHT22;45572;48.804;8.330;2023-10-08T04:29:48;11.80;91.30
3550;DHT22;45572;48.804;8.330;2023-10-08T04:32:17;11.80;91.40
3550;DHT22;45572;48.804;8.330;2023-10-08T04:34:53;11.90;91.40
3550;DHT22;45572;48.804;8.330;2023-10-08T04:37:20;11.80;91.50
3550;DHT22;45572;48.804;8.330;2023-10-08T04:39:53;11.80;91.60
3550;DHT22;45572;48.804;8.330;2023-10-08T04:42:26;11.90;91.60
3550;DHT22;45572;48.804;8.330;2023-10-08T04:44:53;11.90;91.40
3550;DHT22;45572;48.804;8.330;2023-10-08T04:47:22;11.80;91.50
3550;DHT22;45572;48.804;8.330;2023-10-08T04:50:06;11.80;91.40
3550;DHT22;45572;48.804;8.330;2023-10-08T04:52:41;11.70;91.60
3550;DHT22;45572;48.804;8.330;2023-10-08T04:55:12;11.60;91.90
3550;DHT22;45572;48.804;8.330;2023-10-08T04:57:46;11.50;92.10
3550;DHT22;45572;48.804;8.330;2023-10-08T05:00:15;11.40;92.40
3550;DHT22;45572;48.804;8.330;2023-10-08T05:02:53;11.40;92.60
3550;DHT22;45572;48.804;8.330;2023-10-08T05:05:31;11.30;92.20
3550;DHT22;45572;48.804;8.330;2023-10-08T05:08:18;11.30;92.60
3550;DHT22;45572;48.804;8.330;2023-10-08T05:10:55;11.20;92.70
3550;DHT22;45572;48.804;8.330;2023-10-08T05:13:37;11.20;92.90
3550;DHT22;45572;48.804;8.330;2023-10-08T05:16:23;11.30;92.70
3550;DHT22;45572;48.804;8.330;2023-10-08T05:19:03;11.30;92.70
3550;DHT22;45572;48.804;8.330;2023-10-08T05:21:53;11.40;92.40
3550;DHT22;45572;48.804;8.330;2023-10-08T05:24:32;11.30;92.60
3550;DHT22;45572;48.804;8.330;2023-10-08T05:27:07;11.40;92.70
3550;DHT22;45572;48.804;8.330;2023-10-08T05:29:49;11.40;92.60
3550;DHT22;45572;48.804;8.330;2023-10-08T05:32:38;11.50;92.30
3550;DHT22;45572;48.804;8.330;2023-10-08T05:35:13;11.60;91.90
3550;DHT22;45572;48.804;8.330;2023-10-08T05:37:58;11.60;91.80
3550;DHT22;45572;48.804;8.330;2023-10-08T05:40:42;11.50;92.10
3550;DHT22;45572;48.804;8.330;2023-10-08T05:43:32;11.60;92.20
3550;DHT22;45572;48.804;8.330;2023-10-08T05:46:16;11.60;91.90
3550;DHT22;45572;48.804;8.330;2023-10-08T05:49:07;11.60;91.70
3550;DHT22;45572;48.804;8.330;2023-10-08T05:51:49;11.70;91.90
3550;DHT22;45572;48.804;8.330;2023-10-08T05:54:39;11.80;91.70
3550;DHT22;45572;48.804;8.330;2023-10-08T05:57:24;11.90;91.30
3550;DHT22;45572;48.804;8.330;2023-10-08T06:00:06;11.90;91.70
3550;DHT22;45572;48.804;8.330;2023-10-08T06:02:48;12.00;91.40
3550;DHT22;45572;48.804;8.330;2023-10-08T06:05:27;12.00;91.20
3550;DHT22;45572;48.804;8.330;2023-10-08T06:07:59;12.00;91.40
3550;DHT22;45572;48.804;8.330;2023-10-08T06:10:40;12.00;91.30
3550;DHT22;45572;48.804;8.330;2023-10-08T06:13:12;12.10;91.10
3550;DHT22;45572;48.804;8.330;2023-10-08T06:15:44;12.10;91.40
3550;DHT22;45572;48.804;8.330;2023-10-08T06:18:15;12.20;91.50
3550;DHT22;45572;48.804;8.330;2023-10-08T06:20:42;12.30;91.10
3550;DHT22;45572;48.804;8.330;2023-10-08T06:23:11;12.30;90.70
3550;DHT22;45572;48.804;8.330;2023-10-08T06:25:43;12.40;90.70
3550;DHT22;45572;48.804;8.330;2023-10-08T06:28:13;12.30;91.00
3550;DHT22;45572;48.804;8.330;2023-10-08T06:30:42;12.40;91.20
3550;DHT22;45572;48.804;8.330;2023-10-08T06:33:13;12.40;90.80
3550;DHT22;45572;48.804;8.330;2023-10-08T06:35:41;12.40;90.80
3550;DHT22;45572;48.804;8.330;2023-10-08T06:38:11;12.40;91.20
3550;DHT22;45572;48.804;8.330;2023-10-08T06:40:43;12.60;91.20
3550;DHT22;45572;48.804;8.330;2023-10-08T06:43:11;12.80;90.30
3550;DHT22;45572;48.804;8.330;2023-10-08T06:45:41;13.10;89.60
3550;DHT22;45572;48.804;8.330;2023-10-08T06:48:10;13.20;89.60
3550;DHT22;45572;48.804;8.330;2023-10-08T06:50:44;13.40;88.60
3550;DHT22;45572;48.804;8.330;2023-10-08T06:53:13;13.50;87.70
3550;DHT22;45572;48.804;8.330;2023-10-08T06:55:41;13.60;87.80
3550;DHT22;45572;48.804;8.330;2023-10-08T06:58:11;13.50;88.00
3550;DHT22;45572;48.804;8.330;2023-10-08T07:00:41;13.60;87.90
3550;DHT22;45572;48.804;8.330;2023-10-08T07:03:16;13.60;87.70
3550;DHT22;45572;48.804;8.330;2023-10-08T07:05:48;13.60;88.10
3550;DHT22;45572;48.804;8.330;2023-10-08T07:08:26;13.60;88.20
3550;DHT22;45572;48.804;8.330;2023-10-08T07:10:59;13.60;88.60
3550;DHT22;45572;48.804;8.330;2023-10-08T07:13:33;13.60;88.40
3550;DHT22;45572;48.804;8.330;2023-10-08T07:16:03;13.70;88.50
3550;DHT22;45572;48.804;8.330;2023-10-08T07:18:32;13.80;88.60
3550;DHT22;45572;48.804;8.330;2023-10-08T07:21:01;14.00;88.60
3550;DHT22;45572;48.804;8.330;2023-10-08T07:23:39;14.20;88.60
3550;DHT22;45572;48.804;8.330;2023-10-08T07:26:22;14.50;88.00
3550;DHT22;45572;48.804;8.330;2023-10-08T07:28:53;14.80;86.70
3550;DHT22;45572;48.804;8.330;2023-10-08T07:31:22;15.40;86.50
3550;DHT22;45572;48.804;8.330;2023-10-08T07:33:53;16.30;85.10
3550;DHT22;45572;48.804;8.330;2023-10-08T07:36:23;17.20;82.00
3550;DHT22;45572;48.804;8.330;2023-10-08T07:38:51;18.10;78.50
3550;DHT22;45572;48.804;8.330;2023-10-08T07:41:19;18.50;77.00
3550;DHT22;45572;48.804;8.330;2023-10-08T07:43:48;19.00;76.40
3550;DHT22;45572;48.804;8.330;2023-10-08T07:46:23;20.00;75.40
3550;DHT22;45572;48.804;8.330;2023-10-08T07:48:53;21.10;72.70
3550;DHT22;45572;48.804;8.330;2023-10-08T07:51:21;21.80;68.00
3550;DHT22;45572;48.804;8.330;2023-10-08T07:53:50;22.60;67.10
3550;DHT22;45572;48.804;8.330;2023-10-08T07:56:21;23.90;65.50
3550;DHT22;45572;48.804;8.330;2023-10-08T07:58:50;25.00;60.90
3550;DHT22;45572;48.804;8.330;2023-10-08T08:01:18;25.20;60.10
3550;DHT22;45572;48.804;8.330;2023-10-08T08:03:49;26.20;59.60
3550;DHT22;45572;48.804;8.330;2023-10-08T08:06:17;26.50;55.70
3550;DHT22;45572;48.804;8.330;2023-10-08T08:08:45;26.50;56.30
3550;DHT22;45572;48.804;8.330;2023-10-08T08:11:13;26.80;56.00
3550;DHT22;45572;48.804;8.330;2023-10-08T08:13:44;27.10;55.50
3550;DHT22;45572;48.804;8.330;2023-10-08T08:16:13;27.10;54.40
3550;DHT22;45572;48.804;8.330;2023-10-08T08:18:45;26.90;55.30
3550;DHT22;45572;48.804;8.330;2023-10-08T08:21:15;26.30;55.60
3550;DHT22;45572;48.804;8.330;2023-10-08T08:23:45;26.00;57.60
3550;DHT22;45572;48.804;8.330;2023-10-08T08:26:16;26.10;57.70
3550;DHT22;45572;48.804;8.330;2023-10-08T08:28:55;26.50;57.70
3550;DHT22;45572;48.804;8.330;2023-10-08T08:31:24;26.70;55.30
3550;DHT22;45572;48.804;8.330;2023-10-08T08:33:53;27.00;54.90
3550;DHT22;45572;48.804;8.330;2023-10-08T08:36:25;27.50;54.90
3550;DHT22;45572;48.804;8.330;2023-10-08T08:38:53;27.90;52.40
3550;DHT22;45572;48.804;8.330;2023-10-08T08:41:22;28.20;51.00
3550;DHT22;45572;48.804;8.330;2023-10-08T08:43:51;28.30;51.40
3550;DHT22;45572;48.804;8.330;2023-10-08T08:46:30;28.70;52.80
3550;DHT22;45572;48.804;8.330;2023-10-08T08:49:02;29.30;51.60
3550;DHT22;45572;48.804;8.330;2023-10-08T08:51:33;28.30;49.40
3550;DHT22;45572;48.804;8.330;2023-10-08T08:54:02;27.90;52.10
3550;DHT22;45572;48.804;8.330;2023-10-08T08:56:33;27.80;52.30
3550;DHT22;45572;48.804;8.330;2023-10-08T08:59:04;29.10;53.50
3550;DHT22;45572;48.804;8.330;2023-10-08T09:01:32;29.80;49.70
3550;DHT22;45572;48.804;8.330;2023-10-08T09:04:03;29.70;50.10
3550;DHT22;45572;48.804;8.330;2023-10-08T09:06:35;30.60;48.90
3550;DHT22;45572;48.804;8.330;2023-10-08T09:09:04;31.50;50.20
3550;DHT22;45572;48.804;8.330;2023-10-08T09:11:49;32.40;47.40
3550;DHT22;45572;48.804;8.330;2023-10-08T09:14:20;33.30;46.70
3550;DHT22;45572;48.804;8.330;2023-10-08T09:16:49;33.60;43.10
3550;DHT22;45572;48.804;8.330;2023-10-08T09:19:17;32.90;44.70
3550;DHT22;45572;48.804;8.330;2023-10-08T09:22:01;33.20;45.90
3550;DHT22;45572;48.804;8.330;2023-10-08T09:24:31;33.70;43.30
3550;DHT22;45572;48.804;8.330;2023-10-08T09:27:00;34.10;44.20
3550;DHT22;45572;48.804;8.330;2023-10-08T09:29:29;34.70;42.30
3550;DHT22;45572;48.804;8.330;2023-10-08T09:31:59;34.90;42.90
3550;DHT22;45572;48.804;8.330;2023-10-08T09:34:28;35.40;42.00
3550;DHT22;45572;48.804;8.330;2023-10-08T09:36:58;35.80;42.10
3550;DHT22;45572;48.804;8.330;2023-10-08T09:39:29;36.20;42.10
3550;DHT22;45572;48.804;8.330;2023-10-08T09:42:01;36.70;40.60
3550;DHT22;45572;48.804;8.330;2023-10-08T09:44:33;37.10;42.20
3550;DHT22;45572;48.804;8.330;2023-10-08T09:47:03;37.40;41.40
3550;DHT22;45572;48.804;8.330;2023-10-08T09:49:33;37.90;40.30
3550;DHT22;45572;48.804;8.330;2023-10-08T09:52:02;38.10;40.80
3550;DHT22;45572;48.804;8.330;2023-10-08T09:54:37;38.40;38.30
3550;DHT22;45572;48.804;8.330;2023-10-08T09:57:10;38.50;36.10
3550;DHT22;45572;48.804;8.330;2023-10-08T09:59:40;38.50;36.50
3550;DHT22;45572;48.804;8.330;2023-10-08T10:02:08;38.90;35.30
3550;DHT22;45572;48.804;8.330;2023-10-08T10:04:43;38.80;34.60
3550;DHT22;45572;48.804;8.330;2023-10-08T10:07:12;37.10;36.80
3550;DHT22;45572;48.804;8.330;2023-10-08T10:09:45;37.20;37.00
3550;DHT22;45572;48.804;8.330;2023-10-08T10:12:18;37.60;35.60
3550;DHT22;45572;48.804;8.330;2023-10-08T10:14:53;36.50;36.50
3550;DHT22;45572;48.804;8.330;2023-10-08T10:17:23;36.60;39.00
3550;DHT22;45572;48.804;8.330;2023-10-08T10:20:11;36.80;38.30
3550;DHT22;45572;48.804;8.330;2023-10-08T10:22:42;36.50;40.90
3550;DHT22;45572;48.804;8.330;2023-10-08T10:25:16;35.60;39.90
3550;DHT22;45572;48.804;8.330;2023-10-08T10:30:43;34.90;40.60
3550;DHT22;45572;48.804;8.330;2023-10-08T10:33:11;35.20;41.10
3550;DHT22;45572;48.804;8.330;2023-10-08T10:35:39;35.70;41.80
3550;DHT22;45572;48.804;8.330;2023-10-08T10:38:10;35.90;41.20
3550;DHT22;45572;48.804;8.330;2023-10-08T10:40:42;36.60;39.70
3550;DHT22;45572;48.804;8.330;2023-10-08T10:43:11;37.20;38.90
3550;DHT22;45572;48.804;8.330;2023-10-08T10:45:42;37.90;37.60
3550;DHT22;45572;48.804;8.330;2023-10-08T10:48:11;38.10;39.80
3550;DHT22;45572;48.804;8.330;2023-10-08T10:50:40;38.60;37.40
3550;DHT22;45572;48.804;8.330;2023-10-08T10:53:21;39.10;35.90
3550;DHT22;45572;48.804;8.330;2023-10-08T10:55:54;39.40;34.70
3550;DHT22;45572;48.804;8.330;2023-10-08T10:58:31;39.20;34.50
3550;DHT22;45572;48.804;8.330;2023-10-08T11:01:06;39.40;35.70
3550;DHT22;45572;48.804;8.330;2023-10-08T11:03:48;39.70;36.20
3550;DHT22;45572;48.804;8.330;2023-10-08T11:06:18;39.90;35.00
3550;DHT22;45572;48.804;8.330;2023-10-08T11:08:50;39.80;33.60
3550;DHT22;45572;48.804;8.330;2023-10-08T11:11:26;39.90;34.70
3550;DHT22;45572;48.804;8.330;2023-10-08T11:13:56;39.70;34.70
3550;DHT22;45572;48.804;8.330;2023-10-08T11:16:27;39.20;34.20
3550;DHT22;45572;48.804;8.330;2023-10-08T11:18:58;39.30;35.50
3550;DHT22;45572;48.804;8.330;2023-10-08T11:21:33;39.30;36.10
3550;DHT22;45572;48.804;8.330;2023-10-08T11:24:03;39.20;35.00
3550;DHT22;45572;48.804;8.330;2023-10-08T11:26:38;39.30;34.50
3550;DHT22;45572;48.804;8.330;2023-10-08T11:29:10;39.00;33.80
3550;DHT22;45572;48.804;8.330;2023-10-08T11:31:41;38.00;32.40
3550;DHT22;45572;48.804;8.330;2023-10-08T11:34:11;35.00;34.20
3550;DHT22;45572;48.804;8.330;2023-10-08T11:36:41;34.70;36.00
3550;DHT22;45572;48.804;8.330;2023-10-08T11:39:19;33.90;34.90
3550;DHT22;45572;48.804;8.330;2023-10-08T11:42:00;33.20;37.70
3550;DHT22;45572;48.804;8.330;2023-10-08T11:44:33;32.30;37.50
3550;DHT22;45572;48.804;8.330;2023-10-08T11:47:04;31.90;38.70
3550;DHT22;45572;48.804;8.330;2023-10-08T11:49:40;31.40;42.10
3550;DHT22;45572;48.804;8.330;2023-10-08T11:52:14;30.60;40.90
3550;DHT22;45572;48.804;8.330;2023-10-08T11:54:43;30.30;40.70
3550;DHT22;45572;48.804;8.330;2023-10-08T11:57:12;29.80;43.40
3550;DHT22;45572;48.804;8.330;2023-10-08T11:59:40;29.60;40.90
3550;DHT22;45572;48.804;8.330;2023-10-08T12:02:08;29.20;41.50
3550;DHT22;45572;48.804;8.330;2023-10-08T12:04:43;28.80;40.00
3550;DHT22;45572;48.804;8.330;2023-10-08T12:07:12;28.60;40.30
3550;DHT22;45572;48.804;8.330;2023-10-08T12:09:44;28.20;42.70
3550;DHT22;45572;48.804;8.330;2023-10-08T12:12:16;28.20;43.20
3550;DHT22;45572;48.804;8.330;2023-10-08T12:14:50;28.20;45.40
3550;DHT22;45572;48.804;8.330;2023-10-08T12:17:21;28.00;44.50
3550;DHT22;45572;48.804;8.330;2023-10-08T12:20:09;28.20;46.60
3550;DHT22;45572;48.804;8.330;2023-10-08T12:22:49;28.00;46.40
3550;DHT22;45572;48.804;8.330;2023-10-08T12:25:17;27.70;44.30
3550;DHT22;45572;48.804;8.330;2023-10-08T12:27:47;27.70;47.00
3550;DHT22;45572;48.804;8.330;2023-10-08T12:30:16;27.50;46.00
3550;DHT22;45572;48.804;8.330;2023-10-08T12:32:44;27.50;46.00
3550;DHT22;45572;48.804;8.330;2023-10-08T12:35:13;27.40;47.30
3550;DHT22;45572;48.804;8.330;2023-10-08T12:37:41;27.20;48.10
3550;DHT22;45572;48.804;8.330;2023-10-08T12:40:11;27.20;49.90
3550;DHT22;45572;48.804;8.330;2023-10-08T12:42:51;27.20;48.50
3550;DHT22;45572;48.804;8.330;2023-10-08T12:45:19;27.00;46.80
3550;DHT22;45572;48.804;8.330;2023-10-08T12:47:49;26.90;49.00
3550;DHT22;45572;48.804;8.330;2023-10-08T12:50:17;26.80;48.80
3550;DHT22;45572;48.804;8.330;2023-10-08T12:52:51;26.90;47.60
3550;DHT22;45572;48.804;8.330;2023-10-08T12:55:22;26.80;47.10
3550;DHT22;45572;48.804;8.330;2023-10-08T12:57:53;26.70;49.30
3550;DHT22;45572;48.804;8.330;2023-10-08T13:00:23;26.70;50.80
3550;DHT22;45572;48.804;8.330;2023-10-08T13:02:52;26.70;48.30
3550;DHT22;45572;48.804;8.330;2023-10-08T13:05:21;26.70;50.60
3550;DHT22;45572;48.804;8.330;2023-10-08T13:07:55;26.70;47.70
3550;DHT22;45572;48.804;8.330;2023-10-08T13:10:23;26.60;50.20
3550;DHT22;45572;48.804;8.330;2023-10-08T13:12:54;26.50;48.60
3550;DHT22;45572;48.804;8.330;2023-10-08T13:15:23;26.50;48.30
3550;DHT22;45572;48.804;8.330;2023-10-08T13:17:52;26.40;49.40
3550;DHT22;45572;48.804;8.330;2023-10-08T13:20:21;26.30;48.10
3550;DHT22;45572;48.804;8.330;2023-10-08T13:22:50;26.30;47.70
3550;DHT22;45572;48.804;8.330;2023-10-08T13:25:18;26.30;49.20
3550;DHT22;45572;48.804;8.330;2023-10-08T13:27:47;26.20;49.30
3550;DHT22;45572;48.804;8.330;2023-10-08T13:30:16;26.20;50.20
3550;DHT22;45572;48.804;8.330;2023-10-08T13:32:44;26.20;48.50
3550;DHT22;45572;48.804;8.330;2023-10-08T13:35:13;26.20;49.50
3550;DHT22;45572;48.804;8.330;2023-10-08T13:37:41;26.20;48.60
3550;DHT22;45572;48.804;8.330;2023-10-08T13:40:09;26.20;48.00
3550;DHT22;45572;48.804;8.330;2023-10-08T13:42:42;26.20;49.70
3550;DHT22;45572;48.804;8.330;2023-10-08T13:45:10;26.20;49.50
3550;DHT22;45572;48.804;8.330;2023-10-08T13:47:54;26.20;47.30
3550;DHT22;45572;48.804;8.330;2023-10-08T13:50:27;26.10;46.80
3550;DHT22;45572;48.804;8.330;2023-10-08T13:52:57;26.20;46.90
3550;DHT22;45572;48.804;8.330;2023-10-08T13:55:26;26.10;49.60
3550;DHT22;45572;48.804;8.330;2023-10-08T13:57:54;26.00;51.00
3550;DHT22;45572;48.804;8.330;2023-10-08T14:00:24;26.00;48.90
3550;DHT22;45572;48.804;8.330;2023-10-08T14:02:54;26.10;48.50
3550;DHT22;45572;48.804;8.330;2023-10-08T14:05:24;26.10;50.60
3550;DHT22;45572;48.804;8.330;2023-10-08T14:07:52;26.10;51.70
3550;DHT22;45572;48.804;8.330;2023-10-08T14:10:21;26.10;49.80
3550;DHT22;45572;48.804;8.330;2023-10-08T14:12:56;26.10;50.40
3550;DHT22;45572;48.804;8.330;2023-10-08T14:15:28;26.00;49.10
3550;DHT22;45572;48.804;8.330;2023-10-08T14:18:00;26.00;49.80
3550;DHT22;45572;48.804;8.330;2023-10-08T14:20:32;25.80;48.60
3550;DHT22;45572;48.804;8.330;2023-10-08T14:23:00;25.80;51.30
3550;DHT22;45572;48.804;8.330;2023-10-08T14:25:30;25.90;52.30
3550;DHT22;45572;48.804;8.330;2023-10-08T14:28:01;25.70;50.90
3550;DHT22;45572;48.804;8.330;2023-10-08T14:30:37;25.70;52.20
3550;DHT22;45572;48.804;8.330;2023-10-08T14:33:11;25.60;52.90
3550;DHT22;45572;48.804;8.330;2023-10-08T14:35:54;25.60;51.70
3550;DHT22;45572;48.804;8.330;2023-10-08T14:38:37;25.60;50.80
3550;DHT22;45572;48.804;8.330;2023-10-08T14:41:20;25.50;50.60
3550;DHT22;45572;48.804;8.330;2023-10-08T14:44:02;25.60;50.10
3550;DHT22;45572;48.804;8.330;2023-10-08T14:46:32;25.50;51.50
3550;DHT22;45572;48.804;8.330;2023-10-08T14:49:05;25.50;51.80
3550;DHT22;45572;48.804;8.330;2023-10-08T14:51:38;25.50;53.00
3550;DHT22;45572;48.804;8.330;2023-10-08T14:54:07;25.50;51.60
3550;DHT22;45572;48.804;8.330;2023-10-08T14:56:36;25.50;51.20
3550;DHT22;45572;48.804;8.330;2023-10-08T14:59:04;25.50;52.50
3550;DHT22;45572;48.804;8.330;2023-10-08T15:01:32;25.40;54.60
3550;DHT22;45572;48.804;8.330;2023-10-08T15:04:01;25.40;56.30
3550;DHT22;45572;48.804;8.330;2023-10-08T15:06:32;25.40;53.90
3550;DHT22;45572;48.804;8.330;2023-10-08T15:09:01;25.40;54.40
3550;DHT22;45572;48.804;8.330;2023-10-08T15:11:30;25.40;54.30
3550;DHT22;45572;48.804;8.330;2023-10-08T15:13:58;25.40;56.60
3550;DHT22;45572;48.804;8.330;2023-10-08T15:16:26;25.30;53.30
3550;DHT22;45572;48.804;8.330;2023-10-08T15:18:54;25.20;51.50
3550;DHT22;45572;48.804;8.330;2023-10-08T15:21:23;25.20;59.00
3550;DHT22;45572;48.804;8.330;2023-10-08T15:23:54;25.20;61.70
3550;DHT22;45572;48.804;8.330;2023-10-08T15:26:22;25.20;66.90
3550;DHT22;45572;48.804;8.330;2023-10-08T15:28:50;25.10;67.10
3550;DHT22;45572;48.804;8.330;2023-10-08T15:31:18;24.90;65.20
3550;DHT22;45572;48.804;8.330;2023-10-08T15:33:46;24.80;64.10
3550;DHT22;45572;48.804;8.330;2023-10-08T15:36:15;24.80;68.50
3550;DHT22;45572;48.804;8.330;2023-10-08T15:38:43;24.70;69.40
3550;DHT22;45572;48.804;8.330;2023-10-08T15:41:12;24.50;70.20
3550;DHT22;45572;48.804;8.330;2023-10-08T15:43:42;24.20;69.80
3550;DHT22;45572;48.804;8.330;2023-10-08T15:46:11;24.00;71.30
3550;DHT22;45572;48.804;8.330;2023-10-08T15:48:39;23.80;72.00
3550;DHT22;45572;48.804;8.330;2023-10-08T15:51:07;23.60;72.90
3550;DHT22;45572;48.804;8.330;2023-10-08T15:53:35;23.30;73.50
3550;DHT22;45572;48.804;8.330;2023-10-08T15:56:04;23.10;73.30
3550;DHT22;45572;48.804;8.330;2023-10-08T15:58:34;23.00;73.90
3550;DHT22;45572;48.804;8.330;2023-10-08T16:01:01;22.90;74.70
3550;DHT22;45572;48.804;8.330;2023-10-08T16:03:29;22.60;75.00
3550;DHT22;45572;48.804;8.330;2023-10-08T16:05:58;22.50;75.60
3550;DHT22;45572;48.804;8.330;2023-10-08T16:08:26;22.20;76.10
3550;DHT22;45572;48.804;8.330;2023-10-08T16:10:53;21.90;77.40
3550;DHT22;45572;48.804;8.330;2023-10-08T16:13:21;21.70;77.50
3550;DHT22;45572;48.804;8.330;2023-10-08T16:15:52;21.40;78.40
3550;DHT22;45572;48.804;8.330;2023-10-08T16:18:21;21.30;79.20